Time;durP1;ratioP1;P1;durP2;ratioP2;P2;SDS_P1;SDS_P2;PMS_P1;PMS_P2;Temp;Humidity;BMP_temperature;BMP_pressure;BME280_temperature;BME280_humidity;BME280_pressure;Samples;Min_cycle;Max_cycle;Signal;HPM_P1;HPM_P2
2022/09/23 00:00:46;;;;;;;;;;;10.90;99.90;;;;;;5072180;28;20289;-75
2022/09/23 00:03:12;;;;;;;;;;;10.80;99.90;;;;;;5071256;28;20269;-75
2022/09/23 00:05:38;;;;;;;;;;;10.80;99.90;;;;;;5071828;28;19908;-75
2022/09/23 00:08:04;;;;;;;;;;;10.70;99.90;;;;;;5072408;28;19908;-74
2022/09/23 00:10:30;;;;;;;;;;;10.70;99.90;;;;;;5069999;28;20726;-74
2022/09/23 00:12:56;;;;;;;;;;;10.70;99.90;;;;;;5071954;28;19954;-73
2022/09/23 00:15:24;;;;;;;;;;;10.70;99.90;;;;;;5073449;28;19962;-74
2022/09/23 00:17:50;;;;;;;;;;;10.60;99.90;;;;;;5073701;28;20019;-74
2022/09/23 00:20:16;;;;;;;;;;;10.60;99.90;;;;;;5072090;28;19920;-74
2022/09/23 00:22:41;;;;;;;;;;;10.60;99.90;;;;;;5076798;28;19909;-74
2022/09/23 00:25:08;;;;;;;;;;;10.60;99.90;;;;;;5076557;28;19985;-74
2022/09/23 00:27:34;;;;;;;;;;;10.60;99.90;;;;;;5076169;28;20027;-74
2022/09/23 00:30:00;;;;;;;;;;;10.60;99.90;;;;;;5076585;28;19908;-74
2022/09/23 00:32:25;;;;;;;;;;;10.60;99.90;;;;;;5076437;28;20360;-74
2022/09/23 00:34:51;;;;;;;;;;;10.60;99.90;;;;;;5076721;28;19961;-74
2022/09/23 00:37:17;;;;;;;;;;;10.50;99.90;;;;;;5075728;28;19909;-74
2022/09/23 00:39:44;;;;;;;;;;;10.50;99.90;;;;;;5076457;28;19921;-74
2022/09/23 00:42:15;;;;;;;;;;;10.50;99.90;;;;;;5075697;28;19917;-74
2022/09/23 00:44:51;;;;;;;;;;;10.50;99.90;;;;;;5076828;28;19966;-74
2022/09/23 00:47:18;;;;;;;;;;;10.50;99.90;;;;;;5075756;28;19921;-74
2022/09/23 00:49:44;;;;;;;;;;;10.50;99.90;;;;;;5076329;28;19951;-74
2022/09/23 00:52:11;;;;;;;;;;;10.50;99.90;;;;;;5076191;28;19916;-74
2022/09/23 00:54:37;;;;;;;;;;;10.50;99.90;;;;;;5076016;28;19914;-73
2022/09/23 00:57:04;;;;;;;;;;;10.50;99.90;;;;;;5076120;28;20003;-74
2022/09/23 00:59:31;;;;;;;;;;;10.50;99.90;;;;;;5075408;28;20216;-74
2022/09/23 01:01:58;;;;;;;;;;;10.50;99.90;;;;;;5076129;28;20368;-74
2022/09/23 01:04:25;;;;;;;;;;;10.40;99.90;;;;;;5075502;28;19952;-74
2022/09/23 01:06:51;;;;;;;;;;;10.40;99.90;;;;;;5075974;28;19912;-74
2022/09/23 01:09:16;;;;;;;;;;;10.50;99.90;;;;;;5075320;28;20314;-74
2022/09/23 01:11:45;;;;;;;;;;;10.40;99.90;;;;;;5075947;28;19915;-74
2022/09/23 01:14:33;;;;;;;;;;;10.30;99.90;;;;;;5075876;28;19913;-73
2022/09/23 01:17:05;;;;;;;;;;;10.30;99.90;;;;;;5076009;28;20270;-74
2022/09/23 01:19:43;;;;;;;;;;;10.20;99.90;;;;;;5074729;28;20658;-75
2022/09/23 01:22:15;;;;;;;;;;;10.20;99.90;;;;;;5075594;28;19908;-74
2022/09/23 01:24:43;;;;;;;;;;;10.20;99.90;;;;;;5075597;28;19991;-74
2022/09/23 01:27:10;;;;;;;;;;;10.10;99.90;;;;;;5074335;28;20358;-74
2022/09/23 01:29:50;;;;;;;;;;;10.20;99.90;;;;;;5074820;28;20258;-74
2022/09/23 01:32:19;;;;;;;;;;;10.10;99.90;;;;;;5073361;28;19915;-74
2022/09/23 01:35:06;;;;;;;;;;;10.10;99.90;;;;;;5075564;28;19909;-74
2022/09/23 01:37:34;;;;;;;;;;;10.10;99.90;;;;;;5074640;28;20392;-74
2022/09/23 01:40:09;;;;;;;;;;;10.10;99.90;;;;;;5075285;28;19916;-73
2022/09/23 01:42:41;;;;;;;;;;;10.00;99.90;;;;;;5074771;28;20526;-73
2022/09/23 01:45:11;;;;;;;;;;;10.00;99.90;;;;;;5075362;28;20426;-73
2022/09/23 01:47:46;;;;;;;;;;;10.00;99.90;;;;;;5074302;28;20079;-73
2022/09/23 01:53:14;;;;;;;;;;;9.90;99.90;;;;;;5075342;28;19958;-73
2022/09/23 01:55:41;;;;;;;;;;;9.90;99.90;;;;;;5073359;28;19908;-74
2022/09/23 01:58:23;;;;;;;;;;;9.90;99.90;;;;;;5075036;28;19923;-74
2022/09/23 02:00:52;;;;;;;;;;;9.90;99.90;;;;;;5075200;28;19912;-74
2022/09/23 02:03:26;;;;;;;;;;;10.00;99.90;;;;;;5074495;28;19978;-73
2022/09/23 02:05:55;;;;;;;;;;;10.00;99.90;;;;;;5074998;28;19916;-73
2022/09/23 02:08:36;;;;;;;;;;;10.00;99.90;;;;;;5074167;28;19909;-73
2022/09/23 02:11:05;;;;;;;;;;;10.00;99.90;;;;;;5073953;28;20281;-73
2022/09/23 02:13:35;;;;;;;;;;;10.00;99.90;;;;;;5074225;28;19912;-73
2022/09/23 02:16:07;;;;;;;;;;;9.90;99.90;;;;;;5075168;28;19916;-73
2022/09/23 02:18:37;;;;;;;;;;;9.90;99.90;;;;;;5074085;28;20370;-73
2022/09/23 02:21:04;;;;;;;;;;;9.90;99.90;;;;;;5074618;28;19916;-73
2022/09/23 02:23:51;;;;;;;;;;;9.90;99.90;;;;;;5072665;28;19912;-73
2022/09/23 02:26:19;;;;;;;;;;;9.90;99.90;;;;;;5074219;28;19909;-73
2022/09/23 02:28:47;;;;;;;;;;;9.90;99.90;;;;;;5074193;28;19999;-72
2022/09/23 02:31:20;;;;;;;;;;;9.90;99.90;;;;;;5074563;28;19908;-73
2022/09/23 02:33:51;;;;;;;;;;;9.80;99.90;;;;;;5074388;28;20282;-73
2022/09/23 02:36:20;;;;;;;;;;;9.80;99.90;;;;;;5073928;28;20437;-73
2022/09/23 02:38:51;;;;;;;;;;;9.80;99.90;;;;;;5074028;28;19920;-73
2022/09/23 02:41:32;;;;;;;;;;;9.80;99.90;;;;;;5074062;28;19916;-73
2022/09/23 02:44:03;;;;;;;;;;;9.80;99.90;;;;;;5073697;28;19909;-73
2022/09/23 02:46:29;;;;;;;;;;;9.80;99.90;;;;;;5073354;28;19983;-73
2022/09/23 02:49:00;;;;;;;;;;;9.70;99.90;;;;;;5073703;28;19920;-73
2022/09/23 02:51:27;;;;;;;;;;;9.70;99.90;;;;;;5073496;28;20015;-73
2022/09/23 02:53:57;;;;;;;;;;;9.70;99.90;;;;;;5074041;28;19991;-73
2022/09/23 02:56:23;;;;;;;;;;;9.70;99.90;;;;;;5073194;28;19936;-74
2022/09/23 02:58:51;;;;;;;;;;;9.70;99.90;;;;;;5073393;28;19916;-73
2022/09/23 03:01:32;;;;;;;;;;;9.70;99.90;;;;;;5073621;28;19912;-72
2022/09/23 03:03:58;;;;;;;;;;;9.80;99.90;;;;;;5073550;28;19914;-73
2022/09/23 03:06:36;;;;;;;;;;;9.70;99.90;;;;;;5073164;28;19908;-73
2022/09/23 03:09:11;;;;;;;;;;;9.80;99.90;;;;;;5074059;28;19944;-73
2022/09/23 03:11:38;;;;;;;;;;;9.80;99.90;;;;;;5071624;28;19954;-73
2022/09/23 03:14:16;;;;;;;;;;;9.80;99.90;;;;;;5073869;28;19908;-73
2022/09/23 03:17:02;;;;;;;;;;;9.80;99.90;;;;;;5071743;28;20217;-73
2022/09/23 03:19:40;;;;;;;;;;;9.80;99.90;;;;;;5072871;28;20012;-74
2022/09/23 03:22:09;;;;;;;;;;;9.80;99.90;;;;;;5073436;28;19916;-74
2022/09/23 03:24:36;;;;;;;;;;;9.80;99.90;;;;;;5072766;28;19912;-74
2022/09/23 03:27:03;;;;;;;;;;;9.70;99.90;;;;;;5072970;28;19909;-73
2022/09/23 03:29:31;;;;;;;;;;;9.70;99.90;;;;;;5072603;28;19908;-73
2022/09/23 03:31:57;;;;;;;;;;;9.60;99.90;;;;;;5073307;28;19909;-73
2022/09/23 03:34:25;;;;;;;;;;;9.70;99.90;;;;;;5073005;28;19908;-73
2022/09/23 03:37:00;;;;;;;;;;;9.70;99.90;;;;;;5072958;28;19915;-73
2022/09/23 03:39:28;;;;;;;;;;;9.70;99.90;;;;;;5072716;28;19924;-73
2022/09/23 03:41:56;;;;;;;;;;;9.60;99.90;;;;;;5073147;28;19909;-73
2022/09/23 03:44:22;;;;;;;;;;;9.60;99.90;;;;;;5071542;28;19987;-73
2022/09/23 03:46:50;;;;;;;;;;;9.60;99.90;;;;;;5072456;28;20285;-73
2022/09/23 03:49:23;;;;;;;;;;;9.60;99.90;;;;;;5073208;28;19920;-73
2022/09/23 03:51:49;;;;;;;;;;;9.60;99.90;;;;;;5073289;28;19909;-73
2022/09/23 03:54:15;;;;;;;;;;;9.60;99.90;;;;;;5072676;28;20018;-73
2022/09/23 03:56:40;;;;;;;;;;;9.50;99.90;;;;;;5071425;28;20050;-73
2022/09/23 03:59:06;;;;;;;;;;;9.50;99.90;;;;;;5072707;28;19917;-73
2022/09/23 04:01:31;;;;;;;;;;;9.50;99.90;;;;;;5072445;28;19908;-73
2022/09/23 04:03:57;;;;;;;;;;;9.50;99.90;;;;;;5072668;28;19909;-73
2022/09/23 04:06:22;;;;;;;;;;;9.50;99.90;;;;;;5071396;28;19916;-74
2022/09/23 04:08:48;;;;;;;;;;;9.40;99.90;;;;;;5072228;28;19993;-73
2022/09/23 04:11:14;;;;;;;;;;;9.40;99.90;;;;;;5072890;28;19916;-73
2022/09/23 04:13:39;;;;;;;;;;;9.40;99.90;;;;;;5072279;28;19969;-73
2022/09/23 04:16:05;;;;;;;;;;;9.40;99.90;;;;;;5072680;28;19917;-73
2022/09/23 04:18:30;;;;;;;;;;;9.40;99.90;;;;;;5071862;28;19917;-73
2022/09/23 04:20:57;;;;;;;;;;;9.40;99.90;;;;;;5072422;28;20399;-72
2022/09/23 04:23:24;;;;;;;;;;;9.40;99.90;;;;;;5072683;28;19963;-73
2022/09/23 04:25:49;;;;;;;;;;;9.40;99.90;;;;;;5072345;28;19908;-73
2022/09/23 04:28:15;;;;;;;;;;;9.50;99.90;;;;;;5071200;28;19908;-73
2022/09/23 04:30:42;;;;;;;;;;;9.50;99.90;;;;;;5071835;28;19956;-73
2022/09/23 04:33:09;;;;;;;;;;;9.50;99.90;;;;;;5072477;28;19909;-73
2022/09/23 04:35:37;;;;;;;;;;;9.50;99.90;;;;;;5071881;28;19955;-73
2022/09/23 04:38:03;;;;;;;;;;;9.50;99.90;;;;;;5070919;28;19954;-73
2022/09/23 04:40:29;;;;;;;;;;;9.50;99.90;;;;;;5071880;28;19909;-73
2022/09/23 04:42:54;;;;;;;;;;;9.40;99.90;;;;;;5072529;28;19908;-73
2022/09/23 04:45:20;;;;;;;;;;;9.40;99.90;;;;;;5072185;28;19912;-72
2022/09/23 04:47:46;;;;;;;;;;;9.30;99.90;;;;;;5071914;28;19927;-73
2022/09/23 04:50:11;;;;;;;;;;;9.30;99.90;;;;;;5071352;28;19909;-72
2022/09/23 04:52:37;;;;;;;;;;;9.30;99.90;;;;;;5071756;28;20006;-73
2022/09/23 04:55:02;;;;;;;;;;;9.30;99.90;;;;;;5072182;28;19912;-73
2022/09/23 04:57:28;;;;;;;;;;;9.30;99.90;;;;;;5071896;28;19908;-73
2022/09/23 04:59:56;;;;;;;;;;;9.20;99.90;;;;;;5071116;28;21729;-73
2022/09/23 05:02:22;;;;;;;;;;;9.20;99.90;;;;;;5072035;28;19909;-73
2022/09/23 05:04:48;;;;;;;;;;;9.10;99.90;;;;;;5070322;28;19905;-73
2022/09/23 05:07:14;;;;;;;;;;;9.20;99.90;;;;;;5073902;28;20357;-73
2022/09/23 05:09:40;;;;;;;;;;;9.10;99.90;;;;;;5075406;28;19915;-73
2022/09/23 05:12:05;;;;;;;;;;;9.10;99.90;;;;;;5075974;28;20007;-72
2022/09/23 05:14:31;;;;;;;;;;;9.20;99.90;;;;;;5075062;28;19944;-73
2022/09/23 05:16:56;;;;;;;;;;;9.20;99.90;;;;;;5075890;28;19969;-73
2022/09/23 05:19:22;;;;;;;;;;;9.20;99.90;;;;;;5075844;28;19916;-72
2022/09/23 05:21:48;;;;;;;;;;;9.20;99.90;;;;;;5074932;28;19909;-73
2022/09/23 05:24:13;;;;;;;;;;;9.20;99.90;;;;;;5075814;28;19912;-73
2022/09/23 05:26:39;;;;;;;;;;;9.20;99.90;;;;;;5075101;28;20277;-73
2022/09/23 05:29:04;;;;;;;;;;;9.20;99.90;;;;;;5075644;28;19954;-73
2022/09/23 05:31:30;;;;;;;;;;;9.20;99.90;;;;;;5075203;28;19959;-73
2022/09/23 05:33:57;;;;;;;;;;;9.20;99.90;;;;;;5075323;28;19908;-73
2022/09/23 05:36:24;;;;;;;;;;;9.20;99.90;;;;;;5075604;28;19961;-74
2022/09/23 05:38:50;;;;;;;;;;;9.20;99.90;;;;;;5074791;28;20198;-73
2022/09/23 05:41:16;;;;;;;;;;;9.10;99.90;;;;;;5075468;28;19941;-74
2022/09/23 05:43:42;;;;;;;;;;;9.10;99.90;;;;;;5074705;28;19931;-74
2022/09/23 05:46:12;;;;;;;;;;;9.10;99.90;;;;;;5075056;28;20358;-74
2022/09/23 05:48:38;;;;;;;;;;;9.10;99.90;;;;;;5074692;28;19927;-73
2022/09/23 05:51:11;;;;;;;;;;;9.10;99.90;;;;;;5073979;28;19999;-73
2022/09/23 05:53:37;;;;;;;;;;;9.10;99.90;;;;;;5073346;28;19960;-74
2022/09/23 05:56:04;;;;;;;;;;;9.10;99.90;;;;;;5075293;28;20335;-73
2022/09/23 05:58:29;;;;;;;;;;;9.10;99.90;;;;;;5074863;28;19969;-73
2022/09/23 06:00:55;;;;;;;;;;;9.10;99.90;;;;;;5074399;28;19908;-73
2022/09/23 06:03:21;;;;;;;;;;;9.10;99.90;;;;;;5075066;28;19943;-73
2022/09/23 06:05:47;;;;;;;;;;;9.10;99.90;;;;;;5073610;28;19951;-72
2022/09/23 06:08:13;;;;;;;;;;;9.10;99.90;;;;;;5074853;28;19908;-73
2022/09/23 06:10:39;;;;;;;;;;;9.10;99.90;;;;;;5074309;28;20358;-73
2022/09/23 06:13:05;;;;;;;;;;;9.00;99.90;;;;;;5073947;28;19999;-73
2022/09/23 06:15:31;;;;;;;;;;;9.10;99.90;;;;;;5074672;28;19995;-73
2022/09/23 06:17:57;;;;;;;;;;;9.00;99.90;;;;;;5073710;28;19915;-73
2022/09/23 06:20:23;;;;;;;;;;;9.00;99.90;;;;;;5074259;28;19908;-74
2022/09/23 06:22:48;;;;;;;;;;;9.10;99.90;;;;;;5073560;28;20266;-74
2022/09/23 06:25:14;;;;;;;;;;;9.00;99.90;;;;;;5074420;28;19908;-73
2022/09/23 06:27:40;;;;;;;;;;;9.00;99.90;;;;;;5073691;28;20096;-74
2022/09/23 06:30:06;;;;;;;;;;;9.00;99.90;;;;;;5074788;28;20422;-73
2022/09/23 06:32:32;;;;;;;;;;;9.00;99.90;;;;;;5074457;28;19908;-75
2022/09/23 06:34:57;;;;;;;;;;;9.10;99.90;;;;;;5073471;28;19936;-75
2022/09/23 06:37:23;;;;;;;;;;;9.10;99.90;;;;;;5074324;28;20337;-75
2022/09/23 06:39:49;;;;;;;;;;;9.20;99.90;;;;;;5073880;28;20022;-75
2022/09/23 06:42:15;;;;;;;;;;;9.20;99.90;;;;;;5074287;28;19954;-74
2022/09/23 06:44:41;;;;;;;;;;;9.40;99.90;;;;;;5073266;28;19913;-73
2022/09/23 06:47:07;;;;;;;;;;;9.40;99.90;;;;;;5074138;28;19916;-73
2022/09/23 06:49:32;;;;;;;;;;;9.60;99.90;;;;;;5073804;28;19913;-72
2022/09/23 06:51:58;;;;;;;;;;;9.70;99.90;;;;;;5072136;28;19991;-73
2022/09/23 06:54:27;;;;;;;;;;;9.70;99.90;;;;;;5073600;28;19909;-73
2022/09/23 06:56:53;;;;;;;;;;;9.90;99.90;;;;;;5073105;28;20008;-73
2022/09/23 06:59:18;;;;;;;;;;;10.00;99.90;;;;;;5073914;28;20019;-73
2022/09/23 07:01:46;;;;;;;;;;;10.10;99.90;;;;;;5073111;28;19916;-73
2022/09/23 07:04:11;;;;;;;;;;;10.30;99.90;;;;;;5073610;28;19969;-73
2022/09/23 07:06:37;;;;;;;;;;;10.40;99.90;;;;;;5072983;28;19908;-74
2022/09/23 07:09:04;;;;;;;;;;;10.40;99.90;;;;;;5073616;28;19908;-74
2022/09/23 07:11:29;;;;;;;;;;;10.50;99.90;;;;;;5072987;28;19908;-73
2022/09/23 07:13:55;;;;;;;;;;;10.60;99.90;;;;;;5072860;28;19915;-74
2022/09/23 07:16:21;;;;;;;;;;;10.80;99.90;;;;;;5073013;28;19912;-74
2022/09/23 07:18:46;;;;;;;;;;;10.90;99.90;;;;;;5073248;28;19916;-74
2022/09/23 07:21:13;;;;;;;;;;;10.90;99.90;;;;;;5072078;28;19909;-74
2022/09/23 07:23:52;;;;;;;;;;;11.00;99.90;;;;;;5072547;28;19913;-74
2022/09/23 07:26:18;;;;;;;;;;;11.10;99.90;;;;;;5073174;28;19961;-73
2022/09/23 07:28:44;;;;;;;;;;;11.10;99.90;;;;;;5072501;28;19908;-74
2022/09/23 07:31:11;;;;;;;;;;;11.10;99.90;;;;;;5072927;28;20312;-73
2022/09/23 07:33:38;;;;;;;;;;;11.20;99.90;;;;;;5073128;28;19908;-74
2022/09/23 07:36:05;;;;;;;;;;;11.20;99.90;;;;;;5072871;28;19913;-73
2022/09/23 07:38:31;;;;;;;;;;;11.10;99.90;;;;;;5072949;28;19924;-73
2022/09/23 07:41:00;;;;;;;;;;;11.10;99.90;;;;;;5072364;28;20675;-73
2022/09/23 07:43:31;;;;;;;;;;;11.10;99.90;;;;;;5072518;28;20016;-73
2022/09/23 07:45:57;;;;;;;;;;;11.10;99.90;;;;;;5072140;28;19915;-73
2022/09/23 07:48:23;;;;;;;;;;;11.20;99.90;;;;;;5072145;28;19927;-74
2022/09/23 07:50:49;;;;;;;;;;;11.10;99.90;;;;;;5071923;28;19909;-74
2022/09/23 07:53:15;;;;;;;;;;;11.10;99.90;;;;;;5072860;28;20349;-73
2022/09/23 07:55:40;;;;;;;;;;;11.20;99.90;;;;;;5072442;28;19995;-73
2022/09/23 07:58:06;;;;;;;;;;;11.30;99.90;;;;;;5072862;28;19915;-75
2022/09/23 08:00:32;;;;;;;;;;;11.30;99.90;;;;;;5072635;28;20215;-73
2022/09/23 08:02:58;;;;;;;;;;;11.30;99.90;;;;;;5071688;28;20693;-75
2022/09/23 08:05:24;;;;;;;;;;;11.30;99.90;;;;;;5072539;28;19909;-73
2022/09/23 08:07:50;;;;;;;;;;;11.30;99.90;;;;;;5072204;28;19913;-74
2022/09/23 08:10:19;;;;;;;;;;;11.40;99.90;;;;;;5072401;28;20328;-73
2022/09/23 08:12:45;;;;;;;;;;;11.40;99.90;;;;;;5071948;28;19995;-73
2022/09/23 08:15:11;;;;;;;;;;;11.40;99.90;;;;;;5072761;28;19916;-74
2022/09/23 08:17:36;;;;;;;;;;;11.50;99.90;;;;;;5072307;28;19908;-73
2022/09/23 08:20:02;;;;;;;;;;;11.50;99.90;;;;;;5071994;28;20015;-73
2022/09/23 08:22:28;;;;;;;;;;;11.50;99.90;;;;;;5072110;28;19908;-73
2022/09/23 08:24:54;;;;;;;;;;;11.60;99.90;;;;;;5071872;28;19909;-74
2022/09/23 08:27:20;;;;;;;;;;;11.70;99.90;;;;;;5072291;28;20393;-74
2022/09/23 08:29:46;;;;;;;;;;;11.80;99.90;;;;;;5071822;28;19916;-74
2022/09/23 08:32:12;;;;;;;;;;;11.80;99.90;;;;;;5072611;28;19915;-74
2022/09/23 08:34:38;;;;;;;;;;;11.90;99.90;;;;;;5071018;28;19912;-74
2022/09/23 08:37:03;;;;;;;;;;;11.90;99.90;;;;;;5071959;28;19912;-74
2022/09/23 08:39:30;;;;;;;;;;;11.90;99.90;;;;;;5071040;28;19923;-74
2022/09/23 08:42:02;;;;;;;;;;;11.90;99.90;;;;;;5073017;28;20261;-74
2022/09/23 08:44:37;;;;;;;;;;;12.00;99.90;;;;;;5076553;28;19978;-73
2022/09/23 08:47:18;;;;;;;;;;;12.00;99.90;;;;;;5076072;28;19905;-74
2022/09/23 08:49:54;;;;;;;;;;;12.10;99.90;;;;;;5075701;28;19915;-74
2022/09/23 08:52:25;;;;;;;;;;;12.20;99.90;;;;;;5075984;28;19944;-74
2022/09/23 08:54:50;;;;;;;;;;;12.20;99.90;;;;;;5075412;28;20374;-74
2022/09/23 08:57:45;;;;;;;;;;;12.20;99.90;;;;;;5076143;28;19956;-74
2022/09/23 09:00:18;;;;;;;;;;;12.30;99.90;;;;;;5066607;28;20429;-74
2022/09/23 09:02:43;;;;;;;;;;;12.20;99.90;;;;;;5075766;28;19915;-74
2022/09/23 09:05:09;;;;;;;;;;;12.30;99.90;;;;;;5075495;28;19909;-73
2022/09/23 09:07:37;;;;;;;;;;;12.30;99.90;;;;;;5075693;28;19965;-73
2022/09/23 09:10:15;;;;;;;;;;;12.20;99.90;;;;;;5075065;28;19919;-74
2022/09/23 09:12:48;;;;;;;;;;;12.30;99.90;;;;;;5075918;28;19916;-73
2022/09/23 09:15:27;;;;;;;;;;;12.20;99.90;;;;;;5074434;28;19908;-74
2022/09/23 09:18:11;;;;;;;;;;;12.20;99.90;;;;;;5075343;28;19951;-73
2022/09/23 09:20:37;;;;;;;;;;;12.40;99.90;;;;;;5075591;28;20013;-73
2022/09/23 09:23:26;;;;;;;;;;;12.40;99.90;;;;;;5074822;28;19912;-74
2022/09/23 09:25:54;;;;;;;;;;;12.60;99.90;;;;;;5067846;28;19915;-74
2022/09/23 09:28:26;;;;;;;;;;;12.60;99.90;;;;;;5075171;28;20405;-74
2022/09/23 09:31:04;;;;;;;;;;;12.70;99.90;;;;;;5074962;28;19954;-74
2022/09/23 09:33:35;;;;;;;;;;;12.80;99.90;;;;;;5055377;28;19920;-72
2022/09/23 09:36:16;;;;;;;;;;;12.90;99.90;;;;;;5054893;28;19995;-73
2022/09/23 09:38:42;;;;;;;;;;;13.00;99.90;;;;;;5055448;28;19917;-73
2022/09/23 09:41:15;;;;;;;;;;;13.10;99.90;;;;;;5054752;28;19909;-74
2022/09/23 09:43:43;;;;;;;;;;;13.10;99.90;;;;;;5054943;28;19995;-73
2022/09/23 09:46:24;;;;;;;;;;;13.30;99.90;;;;;;5054477;28;19931;-73
2022/09/23 09:48:53;;;;;;;;;;;13.40;99.90;;;;;;5054651;28;19925;-73
2022/09/23 09:51:23;;;;;;;;;;;13.50;99.90;;;;;;5054671;28;20289;-73
2022/09/23 09:53:51;;;;;;;;;;;13.50;99.90;;;;;;5053211;28;19909;-74
2022/09/23 09:56:18;;;;;;;;;;;13.60;99.90;;;;;;5055095;28;20003;-73
2022/09/23 09:58:48;;;;;;;;;;;13.70;99.90;;;;;;5054856;28;20412;-73
2022/09/23 10:01:18;;;;;;;;;;;13.70;99.90;;;;;;5054973;28;19948;-73
2022/09/23 10:03:43;;;;;;;;;;;13.70;99.90;;;;;;5054992;28;19909;-73
2022/09/23 10:06:28;;;;;;;;;;;13.80;99.90;;;;;;5053991;28;19935;-73
2022/09/23 10:09:03;;;;;;;;;;;13.70;99.90;;;;;;5054369;28;20004;-74
2022/09/23 10:11:30;;;;;;;;;;;13.70;99.90;;;;;;5054652;28;20358;-74
2022/09/23 10:13:59;;;;;;;;;;;13.70;99.90;;;;;;5054542;28;19916;-73
2022/09/23 10:16:25;;;;;;;;;;;13.80;99.90;;;;;;5054641;28;19908;-73
2022/09/23 10:18:54;;;;;;;;;;;13.80;99.90;;;;;;5053751;28;20007;-74
2022/09/23 10:21:21;;;;;;;;;;;13.70;99.90;;;;;;5054361;28;19955;-73
2022/09/23 10:23:49;;;;;;;;;;;13.70;99.90;;;;;;5072054;28;19915;-72
2022/09/23 10:26:17;;;;;;;;;;;13.90;99.90;;;;;;5073916;28;19908;-73
2022/09/23 10:28:45;;;;;;;;;;;14.00;99.90;;;;;;5074361;28;20281;-73
2022/09/23 10:31:31;;;;;;;;;;;14.00;99.90;;;;;;5073701;28;19913;-73
2022/09/23 10:34:19;;;;;;;;;;;14.10;99.90;;;;;;5073936;28;19909;-73
2022/09/23 10:36:52;;;;;;;;;;;14.20;99.90;;;;;;5074559;28;19914;-73
2022/09/23 10:47:51;;;;;;;;;;;14.20;99.90;;;;;;5073815;28;20340;-73
2022/09/23 10:50:22;;;;;;;;;;;14.30;99.90;;;;;;5073773;28;19995;-73
2022/09/23 10:53:07;;;;;;;;;;;14.30;99.90;;;;;;5074368;28;20369;-73
2022/09/23 10:55:37;;;;;;;;;;;14.40;99.90;;;;;;5074200;28;19915;-74
2022/09/23 10:58:28;;;;;;;;;;;14.50;99.90;;;;;;5072877;28;19916;-74
2022/09/23 11:01:01;;;;;;;;;;;14.60;99.90;;;;;;5072720;28;19958;-74
2022/09/23 11:03:34;;;;;;;;;;;14.50;99.90;;;;;;5073806;28;19915;-74
2022/09/23 11:05:59;;;;;;;;;;;14.50;99.90;;;;;;5071278;28;20380;-74
2022/09/23 11:08:35;;;;;;;;;;;14.50;99.90;;;;;;5073573;28;19920;-74
2022/09/23 11:11:20;;;;;;;;;;;14.60;99.90;;;;;;5071795;28;20351;-74
2022/09/23 11:13:52;;;;;;;;;;;14.50;99.90;;;;;;5073348;28;19951;-74
2022/09/23 11:16:24;;;;;;;;;;;14.40;99.90;;;;;;5073207;28;20366;-72
2022/09/23 11:19:08;;;;;;;;;;;14.40;99.90;;;;;;5073403;28;19970;-73
2022/09/23 11:21:46;;;;;;;;;;;14.40;99.90;;;;;;5072009;28;19908;-73
2022/09/23 11:24:24;;;;;;;;;;;14.40;99.90;;;;;;5072441;28;20368;-73
2022/09/23 11:26:55;;;;;;;;;;;14.50;99.90;;;;;;5073350;28;19916;-73
2022/09/23 11:29:21;;;;;;;;;;;14.50;99.90;;;;;;5072934;28;20392;-73
2022/09/23 11:31:53;;;;;;;;;;;14.60;99.90;;;;;;5072851;28;19909;-73
2022/09/23 11:34:51;;;;;;;;;;;14.60;99.90;;;;;;5072650;28;19915;-72
2022/09/23 11:37:22;;;;;;;;;;;14.60;99.90;;;;;;5049274;28;19938;-73
2022/09/23 11:40:02;;;;;;;;;;;14.70;99.90;;;;;;5072421;28;19917;-73
2022/09/23 11:42:30;;;;;;;;;;;14.80;99.90;;;;;;5072562;28;19912;-73
2022/09/23 11:45:01;;;;;;;;;;;15.00;99.90;;;;;;5071924;28;19912;-74
2022/09/23 11:47:33;;;;;;;;;;;15.20;99.90;;;;;;5071771;28;19910;-74
2022/09/23 11:50:04;;;;;;;;;;;15.30;99.90;;;;;;5071893;28;19966;-73
2022/09/23 11:52:39;;;;;;;;;;;15.50;99.90;;;;;;5072126;28;20292;-73
2022/09/23 11:55:07;;;;;;;;;;;15.50;99.90;;;;;;5071390;28;19908;-73
2022/09/23 11:57:36;;;;;;;;;;;15.40;99.90;;;;;;5072221;28;19955;-74
2022/09/23 12:00:03;;;;;;;;;;;15.30;99.90;;;;;;5070470;28;19916;-74
2022/09/23 12:02:35;;;;;;;;;;;15.40;99.90;;;;;;5071897;28;19916;-74
2022/09/23 12:05:13;;;;;;;;;;;15.50;99.90;;;;;;5071512;28;20007;-74
2022/09/23 12:07:57;;;;;;;;;;;15.60;99.90;;;;;;5071815;28;20357;-74
2022/09/23 12:10:26;;;;;;;;;;;15.80;99.90;;;;;;5071009;28;19908;-72
2022/09/23 12:13:09;;;;;;;;;;;16.00;99.90;;;;;;5072072;28;19908;-74
2022/09/23 12:15:38;;;;;;;;;;;16.10;99.90;;;;;;5070858;28;19908;-73
2022/09/23 12:18:10;;;;;;;;;;;16.20;99.90;;;;;;5070802;28;19916;-74
2022/09/23 12:21:01;;;;;;;;;;;16.20;99.90;;;;;;5072089;28;20007;-73
2022/09/23 12:23:46;;;;;;;;;;;16.20;99.90;;;;;;5069485;28;19991;-73
2022/09/23 12:26:16;;;;;;;;;;;16.10;99.90;;;;;;5071125;28;19962;-73
2022/09/23 12:28:44;;;;;;;;;;;16.00;99.90;;;;;;5071932;28;20001;-73
2022/09/23 12:31:14;;;;;;;;;;;15.90;99.90;;;;;;5071325;28;19954;-73
2022/09/23 12:33:46;;;;;;;;;;;15.90;99.90;;;;;;5070262;28;19909;-74
2022/09/23 12:36:12;;;;;;;;;;;16.00;99.90;;;;;;5071658;28;19924;-73
2022/09/23 12:38:52;;;;;;;;;;;16.00;99.90;;;;;;5071693;28;19917;-73
2022/09/23 12:41:26;;;;;;;;;;;16.10;99.90;;;;;;5070948;28;19963;-73
2022/09/23 12:43:59;;;;;;;;;;;16.20;99.90;;;;;;5071369;28;19913;-73
2022/09/23 12:46:26;;;;;;;;;;;16.30;99.90;;;;;;5071093;28;19912;-73
2022/09/23 12:49:00;;;;;;;;;;;16.30;99.90;;;;;;5072149;28;19964;-73
2022/09/23 12:51:27;;;;;;;;;;;16.40;99.90;;;;;;5072326;28;19908;-73
2022/09/23 12:53:54;;;;;;;;;;;16.50;99.90;;;;;;5071630;28;19962;-74
2022/09/23 12:56:25;;;;;;;;;;;16.40;99.90;;;;;;5072036;28;19912;-73
2022/09/23 12:58:53;;;;;;;;;;;16.60;99.90;;;;;;5072000;28;19921;-74
2022/09/23 13:01:21;;;;;;;;;;;16.70;99.90;;;;;;5070487;28;19954;-73
2022/09/23 13:06:40;;;;;;;;;;;17.00;99.90;;;;;;5072290;28;20399;-73
2022/09/23 13:09:07;;;;;;;;;;;16.90;99.90;;;;;;5071339;28;20007;-73
2022/09/23 13:11:36;;;;;;;;;;;16.90;99.90;;;;;;5071989;28;19909;-73
2022/09/23 13:14:03;;;;;;;;;;;16.90;99.90;;;;;;5070927;28;19913;-73
2022/09/23 13:16:30;;;;;;;;;;;16.80;99.90;;;;;;5071739;28;20011;-73
2022/09/23 13:18:55;;;;;;;;;;;16.70;99.90;;;;;;5069968;28;20282;-73
2022/09/23 13:21:40;;;;;;;;;;;16.60;99.90;;;;;;5071883;28;19908;-73
2022/09/23 13:24:11;;;;;;;;;;;16.50;99.90;;;;;;5070822;28;19940;-72
2022/09/23 13:26:38;;;;;;;;;;;16.40;99.90;;;;;;5071752;28;19909;-73
2022/09/23 13:29:05;;;;;;;;;;;16.30;99.90;;;;;;5074086;28;20358;-74
2022/09/23 13:31:30;;;;;;;;;;;16.20;99.90;;;;;;5075422;28;19917;-73
2022/09/23 13:34:01;;;;;;;;;;;16.20;99.90;;;;;;5075387;28;19920;-73
2022/09/23 13:36:27;;;;;;;;;;;16.20;99.90;;;;;;5075322;28;19909;-74
2022/09/23 13:39:11;;;;;;;;;;;16.20;99.90;;;;;;5074063;28;19916;-73
2022/09/23 13:41:37;;;;;;;;;;;16.30;99.90;;;;;;5075078;28;19966;-72
2022/09/23 13:44:03;;;;;;;;;;;16.40;99.90;;;;;;5074394;28;19970;-73
2022/09/23 13:46:30;;;;;;;;;;;16.40;99.90;;;;;;5075565;28;19915;-73
2022/09/23 13:48:55;;;;;;;;;;;16.50;99.90;;;;;;5074696;28;19920;-73
2022/09/23 13:51:29;;;;;;;;;;;16.70;99.90;;;;;;5074832;28;20249;-73
2022/09/23 13:53:56;;;;;;;;;;;16.90;99.90;;;;;;5074832;28;20054;-73
2022/09/23 13:56:22;;;;;;;;;;;17.00;99.90;;;;;;5074705;28;19908;-74
2022/09/23 13:58:47;;;;;;;;;;;17.00;99.90;;;;;;5074567;28;20016;-71
2022/09/23 14:01:21;;;;;;;;;;;16.90;99.90;;;;;;5074283;28;20050;-73
2022/09/23 14:03:46;;;;;;;;;;;16.90;99.90;;;;;;5074586;28;19932;-74
2022/09/23 14:06:16;;;;;;;;;;;17.00;99.90;;;;;;5073920;28;20357;-74
2022/09/23 14:08:46;;;;;;;;;;;17.10;99.90;;;;;;5074777;28;19913;-74
2022/09/23 14:11:32;;;;;;;;;;;17.10;99.90;;;;;;5074000;28;19915;-73
2022/09/23 14:13:59;;;;;;;;;;;17.10;99.90;;;;;;5073189;28;19992;-73
2022/09/23 14:16:27;;;;;;;;;;;17.10;99.90;;;;;;5074891;28;20407;-73
2022/09/23 14:18:58;;;;;;;;;;;17.10;99.90;;;;;;5074420;28;19956;-73
2022/09/23 14:21:23;;;;;;;;;;;17.20;99.90;;;;;;5073083;28;19910;-73
2022/09/23 14:23:49;;;;;;;;;;;17.20;99.90;;;;;;5074565;28;19962;-74
2022/09/23 14:26:15;;;;;;;;;;;17.30;99.90;;;;;;5074008;28;19908;-74
2022/09/23 14:28:40;;;;;;;;;;;17.30;99.90;;;;;;5074748;28;20239;-74
2022/09/23 14:31:06;;;;;;;;;;;17.30;99.90;;;;;;5073842;28;19908;-74
2022/09/23 14:33:32;;;;;;;;;;;17.40;99.90;;;;;;5072950;28;20418;-73
2022/09/23 14:36:06;;;;;;;;;;;17.50;99.90;;;;;;5074318;28;19908;-74
2022/09/23 14:38:50;;;;;;;;;;;17.50;99.90;;;;;;5074117;28;19921;-73
2022/09/23 14:41:21;;;;;;;;;;;17.60;99.90;;;;;;5073175;28;19915;-73
2022/09/23 14:43:53;;;;;;;;;;;17.70;99.90;;;;;;5073845;28;19908;-73
2022/09/23 14:46:20;;;;;;;;;;;17.60;99.90;;;;;;5073354;28;19959;-73
2022/09/23 14:49:00;;;;;;;;;;;17.70;99.90;;;;;;5073409;28;19920;-73